createdAt,value
2022-11-23T00:01:31.301Z,164.60
2022-11-23T00:04:03.283Z,148.73
2022-11-23T00:06:31.892Z,155.03
2022-11-23T00:08:59.567Z,155.03
2022-11-23T00:11:28.328Z,177.27
2022-11-23T00:13:56.559Z,172.97
2022-11-23T00:16:27.504Z,169.80
2022-11-23T00:18:56.829Z,161.87
2022-11-23T00:21:26.871Z,158.90
2022-11-23T00:23:54.529Z,155.43
2022-11-23T00:26:22.694Z,171.93
2022-11-23T00:28:50.491Z,183.37
2022-11-23T00:31:20.292Z,163.13
2022-11-23T00:33:52.938Z,159.33
2022-11-23T00:36:22.074Z,158.90
2022-11-23T00:38:51.438Z,177.50
2022-11-23T00:41:22.579Z,184.67
2022-11-23T00:43:50.732Z,194.20
2022-11-23T00:46:21.955Z,178.87
2022-11-23T00:48:52.505Z,192.53
2022-11-23T00:51:23.224Z,199.50
2022-11-23T00:53:51.720Z,191.43
2022-11-23T00:56:20.633Z,181.40
2022-11-23T00:58:52.906Z,185.57
2022-11-23T01:01:25.451Z,207.30
2022-11-23T01:03:55.354Z,216.07
2022-11-23T01:06:28.004Z,205.07
2022-11-23T01:09:03.490Z,196.80
2022-11-23T01:11:32.795Z,203.00
2022-11-23T01:14:01.646Z,197.87
2022-11-23T01:16:38.036Z,203.23
2022-11-23T01:19:08.854Z,232.97
2022-11-23T01:21:37.110Z,208.87
2022-11-23T01:24:09.154Z,233.97
2022-11-23T01:26:41.290Z,226.80
2022-11-23T01:29:09.711Z,210.80
2022-11-23T01:31:46.169Z,242.87
2022-11-23T01:34:16.092Z,229.87
2022-11-23T01:36:44.884Z,230.07
2022-11-23T01:39:13.457Z,224.83
2022-11-23T01:41:44.420Z,211.60
2022-11-23T01:44:32.836Z,215.93
2022-11-23T01:47:06.724Z,217.90
2022-11-23T01:49:40.569Z,241.27
2022-11-23T01:52:17.548Z,231.67
2022-11-23T01:54:49.457Z,255.40
2022-11-23T01:57:22.779Z,244.80
2022-11-23T01:59:51.143Z,241.23
2022-11-23T02:02:19.297Z,233.37
2022-11-23T02:04:49.589Z,233.60
2022-11-23T02:07:18.797Z,235.60
2022-11-23T02:09:47.444Z,260.83
2022-11-23T02:12:15.534Z,243.80
2022-11-23T02:14:45.032Z,245.67
2022-11-23T02:17:13.300Z,288.83
2022-11-23T02:19:43.864Z,250.30
2022-11-23T02:22:20.403Z,262.57
2022-11-23T02:24:53.359Z,277.57
2022-11-23T02:27:23.171Z,261.07
2022-11-23T02:29:52.313Z,268.33
2022-11-23T02:32:24.934Z,285.57
2022-11-23T02:34:56.549Z,270.27
2022-11-23T02:37:24.497Z,251.30
2022-11-23T02:39:55.304Z,225.27
2022-11-23T02:42:24.903Z,280.33
2022-11-23T02:45:17.384Z,255.77
2022-11-23T02:47:45.310Z,275.10
2022-11-23T02:50:12.663Z,300.07
2022-11-23T02:52:43.680Z,269.57
2022-11-23T02:55:11.297Z,251.40
2022-11-23T02:57:39.124Z,255.57
2022-11-23T03:00:07.614Z,274.37
2022-11-23T03:02:35.273Z,260.23
2022-11-23T03:05:02.919Z,312.70
2022-11-23T03:07:30.919Z,269.53
2022-11-23T03:09:59.444Z,247.07
2022-11-23T03:12:27.114Z,262.37
2022-11-23T03:14:54.643Z,229.67
2022-11-23T03:17:23.887Z,240.13
2022-11-23T03:19:51.689Z,249.57
2022-11-23T03:22:19.324Z,245.37
2022-11-23T03:24:47.762Z,251.60
2022-11-23T03:27:17.261Z,267.20
2022-11-23T03:29:46.189Z,269.47
2022-11-23T03:32:18.778Z,245.57
2022-11-23T03:34:49.940Z,204.20
2022-11-23T03:37:20.322Z,209.87
2022-11-23T03:39:48.440Z,230.87
2022-11-23T03:42:34.847Z,250.00
2022-11-23T03:45:02.609Z,256.57
2022-11-23T03:47:30.752Z,209.30
2022-11-23T03:49:58.166Z,228.70
2022-11-23T03:52:25.921Z,206.17
2022-11-23T03:54:53.332Z,213.37
2022-11-23T03:57:21.233Z,212.30
2022-11-23T03:59:48.753Z,220.70
2022-11-23T04:02:16.498Z,209.37
2022-11-23T04:04:52.783Z,205.37
2022-11-23T04:07:43.907Z,203.17
2022-11-23T04:10:11.521Z,239.80
2022-11-23T04:13:00.126Z,207.70
2022-11-23T04:15:28.659Z,202.90
2022-11-23T04:17:56.426Z,200.67
2022-11-23T04:20:24.225Z,218.33
2022-11-23T04:22:51.854Z,221.40
2022-11-23T04:25:19.558Z,200.40
2022-11-23T04:27:49.607Z,198.90
2022-11-23T04:30:17.952Z,215.10
2022-11-23T04:32:46.402Z,204.13
2022-11-23T04:35:15.022Z,189.00
2022-11-23T04:37:45.572Z,205.17
2022-11-23T04:40:14.322Z,187.33
2022-11-23T04:43:01.664Z,192.50
2022-11-23T04:45:32.091Z,216.10
2022-11-23T04:48:04.961Z,213.70
2022-11-23T04:50:34.357Z,214.20
2022-11-23T04:53:04.106Z,219.57
2022-11-23T04:55:38.723Z,201.63
2022-11-23T04:58:06.767Z,200.93
2022-11-23T05:00:35.820Z,198.73
2022-11-23T05:03:05.491Z,221.97
2022-11-23T05:05:38.372Z,225.10
2022-11-23T05:08:06.861Z,209.07
2022-11-23T05:10:46.547Z,187.63
2022-11-23T05:13:15.116Z,213.33
2022-11-23T05:15:43.953Z,182.37
2022-11-23T05:18:14.187Z,217.60
2022-11-23T05:20:42.138Z,190.13
2022-11-23T05:23:11.099Z,210.57
2022-11-23T05:25:41.458Z,218.70
2022-11-23T05:28:39.181Z,204.10
2022-11-23T05:31:06.477Z,237.47
2022-11-23T05:33:34.454Z,255.87
2022-11-23T05:36:04.418Z,195.37
2022-11-23T05:38:37.777Z,240.77
2022-11-23T05:41:11.126Z,240.27
2022-11-23T05:43:41.711Z,222.63
2022-11-23T05:46:12.826Z,257.50
2022-11-23T05:48:40.672Z,240.33
2022-11-23T05:51:10.613Z,216.50
2022-11-23T05:53:44.044Z,226.70
2022-11-23T05:56:33.735Z,230.97
2022-11-23T05:59:10.932Z,227.83
2022-11-23T06:01:40.423Z,217.07
2022-11-23T06:04:10.082Z,238.30
2022-11-23T06:06:42.098Z,234.47
2022-11-23T06:09:11.412Z,211.23
2022-11-23T06:11:42.546Z,228.80
2022-11-23T06:14:14.785Z,221.93
2022-11-23T06:16:45.413Z,212.10
2022-11-23T06:19:34.993Z,214.93
2022-11-23T06:22:03.458Z,218.73
2022-11-23T06:24:35.204Z,198.73
2022-11-23T06:27:22.518Z,223.77
2022-11-23T06:29:51.629Z,241.63
2022-11-23T06:32:20.857Z,182.47
2022-11-23T06:34:48.788Z,239.00
2022-11-23T06:37:16.306Z,222.47
2022-11-23T06:39:49.645Z,224.43
2022-11-23T06:42:37.756Z,219.57
2022-11-23T06:45:05.415Z,212.73
2022-11-23T06:47:32.940Z,192.33
2022-11-23T06:50:00.757Z,184.33
2022-11-23T06:52:29.884Z,189.43
2022-11-23T06:54:57.624Z,231.80
2022-11-23T06:57:25.957Z,227.73
2022-11-23T06:59:54.992Z,201.73
2022-11-23T07:02:29.386Z,209.90
2022-11-23T07:04:59.570Z,207.60
2022-11-23T07:07:29.727Z,196.07
2022-11-23T07:10:07.469Z,186.47
2022-11-23T07:13:04.832Z,175.87
2022-11-23T07:15:33.641Z,225.37
2022-11-23T07:18:02.707Z,194.20
2022-11-23T07:20:30.465Z,190.67
2022-11-23T07:23:10.328Z,187.83
2022-11-23T07:25:40.355Z,217.97
2022-11-23T07:28:08.304Z,219.13
2022-11-23T07:30:36.863Z,194.53
2022-11-23T07:33:08.562Z,199.47
2022-11-23T07:35:39.926Z,209.13
2022-11-23T07:38:10.347Z,204.53
2022-11-23T07:40:39.679Z,202.90
2022-11-23T07:43:14.121Z,193.97
2022-11-23T07:45:41.859Z,200.33
2022-11-23T07:48:14.079Z,209.10
2022-11-23T07:50:41.757Z,196.87
2022-11-23T07:53:10.255Z,179.70
2022-11-23T07:55:37.898Z,190.43
2022-11-23T07:58:06.703Z,172.13
2022-11-23T08:00:34.489Z,167.20
2022-11-23T08:03:26.510Z,166.70
2022-11-23T08:05:50.451Z,183.07
2022-11-23T08:08:17.985Z,184.60
2022-11-23T08:10:50.036Z,201.47
2022-11-23T08:13:21.122Z,175.63
2022-11-23T08:15:54.920Z,179.77
2022-11-23T08:18:26.594Z,165.77
2022-11-23T08:20:54.567Z,170.77
2022-11-23T08:23:23.682Z,170.00
2022-11-23T08:25:52.587Z,175.67
2022-11-23T08:28:20.193Z,158.43
2022-11-23T08:30:48.813Z,149.70
2022-11-23T08:33:17.070Z,143.53
2022-11-23T08:35:45.226Z,164.07
2022-11-23T08:38:13.732Z,150.57
2022-11-23T08:40:41.336Z,148.03
2022-11-23T08:43:09.460Z,146.73
2022-11-23T08:45:37.031Z,140.87
2022-11-23T08:48:05.598Z,158.00
2022-11-23T08:50:35.533Z,150.17
2022-11-23T08:53:03.579Z,151.60
2022-11-23T08:55:31.333Z,111.90
2022-11-23T08:57:59.666Z,137.97
2022-11-23T09:00:28.369Z,129.23
2022-11-23T09:03:00.190Z,136.90
2022-11-23T09:05:30.243Z,138.03
2022-11-23T09:08:01.663Z,134.67
2022-11-23T09:10:29.664Z,144.47
2022-11-23T09:12:59.601Z,147.80
2022-11-23T09:15:27.856Z,138.07
2022-11-23T09:17:57.552Z,132.23
2022-11-23T09:20:25.194Z,120.20
2022-11-23T09:22:54.510Z,124.37
2022-11-23T09:25:23.005Z,130.37
2022-11-23T09:27:58.937Z,134.93
2022-11-23T09:30:27.562Z,149.97
2022-11-23T09:32:59.953Z,134.63
2022-11-23T09:35:29.804Z,125.17
2022-11-23T09:37:59.297Z,139.83
2022-11-23T09:40:47.252Z,125.67
2022-11-23T09:43:41.771Z,128.13
2022-11-23T09:46:19.535Z,131.33
2022-11-23T09:49:10.942Z,119.03
2022-11-23T09:51:41.614Z,119.57
2022-11-23T09:54:24.765Z,120.77
2022-11-23T09:57:01.245Z,116.23
2022-11-23T09:59:58.440Z,119.67
2022-11-23T10:02:29.214Z,112.33
2022-11-23T10:05:00.828Z,118.10
2022-11-23T10:07:59.342Z,122.30
2022-11-23T10:10:52.685Z,111.13
2022-11-23T10:13:43.625Z,109.20
2022-11-23T10:16:26.546Z,110.83
2022-11-23T10:19:12.592Z,111.37
2022-11-23T10:21:46.118Z,109.03
2022-11-23T10:24:29.025Z,114.40
2022-11-23T10:26:58.263Z,126.87
2022-11-23T10:29:35.856Z,110.27
2022-11-23T10:32:13.823Z,104.23
2022-11-23T10:34:59.835Z,104.13
2022-11-23T10:37:27.882Z,102.03
2022-11-23T10:39:55.359Z,97.83
2022-11-23T10:42:54.027Z,102.37
2022-11-23T10:45:25.060Z,100.43
2022-11-23T10:47:55.621Z,96.37
2022-11-23T10:50:30.423Z,99.77
2022-11-23T10:53:02.350Z,109.70
2022-11-23T10:55:33.478Z,123.27
2022-11-23T10:58:01.590Z,100.33
2022-11-23T11:00:31.151Z,101.50
2022-11-23T11:03:00.608Z,109.77
2022-11-23T11:08:57.211Z,110.50
2022-11-23T11:11:39.969Z,85.47
2022-11-23T11:14:18.361Z,97.93
2022-11-23T11:16:58.209Z,88.30
2022-11-23T11:19:34.787Z,100.73
2022-11-23T11:22:24.941Z,81.90
2022-11-23T11:24:53.861Z,96.77
2022-11-23T11:27:23.986Z,101.20
2022-11-23T11:29:55.523Z,85.17
2022-11-23T11:32:47.901Z,122.40
2022-11-23T11:35:32.811Z,112.13
2022-11-23T11:38:14.086Z,112.07
2022-11-23T11:40:52.707Z,220.77
2022-11-23T11:43:39.995Z,121.83
2022-11-23T11:46:35.423Z,101.10
2022-11-23T11:49:21.205Z,74.20
2022-11-23T11:52:19.902Z,82.97
2022-11-23T11:54:53.951Z,214.17
2022-11-23T11:57:26.767Z,325.00
2022-11-23T11:59:58.217Z,348.67
2022-11-23T12:02:37.896Z,393.60
2022-11-23T12:05:25.877Z,443.20
2022-11-23T12:08:06.030Z,162.90
2022-11-23T12:10:37.291Z,174.13
2022-11-23T12:13:06.773Z,143.37
2022-11-23T12:15:51.083Z,124.93
2022-11-23T12:18:40.839Z,150.10
2022-11-23T12:21:14.442Z,140.63
2022-11-23T12:23:51.290Z,116.23
2022-11-23T12:26:27.744Z,112.13
2022-11-23T12:29:18.658Z,92.80
2022-11-23T12:32:33.663Z,103.93
2022-11-23T12:35:20.481Z,95.63
2022-11-23T12:38:25.196Z,93.07
2022-11-23T12:41:11.690Z,96.30
2022-11-23T12:43:54.237Z,87.03
2022-11-23T12:46:30.764Z,96.30
2022-11-23T12:49:01.514Z,105.93
2022-11-23T12:52:24.601Z,113.40
2022-11-23T12:55:08.248Z,99.33
2022-11-23T12:58:05.342Z,99.67
2022-11-23T13:00:42.173Z,92.43
2022-11-23T13:03:34.677Z,88.20
2022-11-23T13:06:26.345Z,85.03
2022-11-23T13:09:03.156Z,86.77
2022-11-23T13:11:51.178Z,90.67
2022-11-23T13:14:47.413Z,81.77
2022-11-23T13:17:29.763Z,86.47
2022-11-23T13:20:04.321Z,83.90
2022-11-23T13:22:32.936Z,75.30
2022-11-23T13:25:02.289Z,75.17
2022-11-23T13:27:42.269Z,85.43
2022-11-23T13:30:26.124Z,86.30
2022-11-23T13:32:58.535Z,75.33
2022-11-23T13:35:29.556Z,80.90
2022-11-23T13:37:57.220Z,79.23
2022-11-23T13:40:28.360Z,83.00
2022-11-23T13:42:59.988Z,81.80
2022-11-23T13:45:34.791Z,88.50
2022-11-23T13:48:41.389Z,249.87
2022-11-23T13:51:04.636Z,90.97
2022-11-23T13:53:41.457Z,100.40
2022-11-23T13:56:38.374Z,83.07
2022-11-23T13:59:16.293Z,87.40
2022-11-23T14:02:07.569Z,81.77
2022-11-23T14:04:42.311Z,93.43
2022-11-23T14:07:11.835Z,87.63
2022-11-23T14:10:09.925Z,87.43
2022-11-23T14:12:49.148Z,117.63
2022-11-23T14:15:59.480Z,92.30
2022-11-23T14:18:47.234Z,93.47
2022-11-23T14:21:23.346Z,100.47
2022-11-23T14:24:16.077Z,96.50
2022-11-23T14:26:56.811Z,151.73
2022-11-23T14:29:31.109Z,477.37
2022-11-23T14:32:27.360Z,166.93
2022-11-23T14:35:00.088Z,121.53
2022-11-23T14:37:43.839Z,100.50
2022-11-23T14:40:38.956Z,110.83
2022-11-23T14:43:14.313Z,91.07
2022-11-23T14:45:42.489Z,97.23
2022-11-23T14:48:30.172Z,107.53
2022-11-23T14:51:01.308Z,96.70
2022-11-23T14:53:43.971Z,314.10
2022-11-23T14:56:31.936Z,170.80
2022-11-23T14:59:08.650Z,123.30
2022-11-23T15:01:38.134Z,99.53
2022-11-23T15:04:21.449Z,96.77
2022-11-23T15:06:54.657Z,95.30
2022-11-23T15:09:23.161Z,85.67
2022-11-23T15:11:51.858Z,86.80
2022-11-23T15:14:27.672Z,87.33
2022-11-23T15:16:56.070Z,86.83
2022-11-23T15:19:29.019Z,81.97
2022-11-23T15:21:58.413Z,90.93
2022-11-23T15:24:27.519Z,82.80
2022-11-23T15:27:10.788Z,88.57
2022-11-23T15:29:40.111Z,87.63
2022-11-23T15:32:30.573Z,89.53
2022-11-23T15:35:12.153Z,96.73
2022-11-23T15:37:48.164Z,92.07
2022-11-23T15:40:17.155Z,93.83
2022-11-23T15:42:47.747Z,94.40
2022-11-23T15:45:43.009Z,94.00
2022-11-23T15:48:17.803Z,95.77
2022-11-23T15:50:59.574Z,159.90
2022-11-23T15:53:46.528Z,116.00
2022-11-23T15:56:36.324Z,291.60
2022-11-23T15:59:18.658Z,260.37
2022-11-23T16:01:46.916Z,127.63
2022-11-23T16:04:31.443Z,168.90
2022-11-23T16:07:16.306Z,168.97
2022-11-23T16:09:51.746Z,364.37
2022-11-23T16:12:22.604Z,475.60
2022-11-23T16:14:50.643Z,490.73
2022-11-23T16:17:24.185Z,455.80
2022-11-23T16:19:54.231Z,353.77
2022-11-23T16:22:40.504Z,131.17
2022-11-23T16:25:26.239Z,110.57
2022-11-23T16:28:02.515Z,336.73
2022-11-23T16:30:39.101Z,695.17
2022-11-23T16:33:13.361Z,285.63
2022-11-23T16:35:41.584Z,277.33
2022-11-23T16:38:09.616Z,1041.50
2022-11-23T16:40:37.495Z,947.63
2022-11-23T16:43:05.492Z,482.90
2022-11-23T16:45:34.087Z,146.10
2022-11-23T16:48:02.947Z,405.67
2022-11-23T16:50:33.190Z,304.47
2022-11-23T16:53:15.812Z,360.63
2022-11-23T16:55:46.181Z,121.37
2022-11-23T16:58:16.301Z,269.67
2022-11-23T17:00:45.071Z,295.90
2022-11-23T17:03:17.684Z,329.60
2022-11-23T17:05:47.167Z,276.20
2022-11-23T17:08:21.583Z,198.87
2022-11-23T17:10:52.511Z,132.70
2022-11-23T17:13:25.146Z,191.83
2022-11-23T17:15:54.322Z,195.90
2022-11-23T17:18:22.684Z,176.43
2022-11-23T17:20:50.944Z,144.50
2022-11-23T17:23:19.381Z,172.23
2022-11-23T17:25:47.787Z,286.53
2022-11-23T17:28:21.352Z,200.00
2022-11-23T17:30:50.270Z,268.67
2022-11-23T17:33:18.016Z,165.90
2022-11-23T17:35:45.955Z,242.57
2022-11-23T17:38:16.943Z,156.23
2022-11-23T17:40:44.870Z,126.83
2022-11-23T17:43:15.832Z,198.60
2022-11-23T17:45:45.210Z,209.63
2022-11-23T17:48:15.160Z,164.90
2022-11-23T17:50:43.067Z,272.60
2022-11-23T17:53:11.368Z,294.90
2022-11-23T17:55:39.848Z,269.57
2022-11-23T17:58:08.272Z,319.80
2022-11-23T18:00:37.772Z,284.77
2022-11-23T18:03:06.243Z,188.93
2022-11-23T18:05:35.494Z,178.23
2022-11-23T18:08:03.067Z,188.20
2022-11-23T18:10:31.176Z,172.33
2022-11-23T18:12:59.284Z,155.00
2022-11-23T18:15:27.801Z,158.27
2022-11-23T18:17:57.910Z,143.50
2022-11-23T18:20:29.811Z,166.20
2022-11-23T18:22:57.897Z,188.53
2022-11-23T18:25:26.356Z,149.77
2022-11-23T18:27:54.738Z,143.57
2022-11-23T18:30:23.148Z,129.67
2022-11-23T18:32:50.695Z,126.20
2022-11-23T18:35:18.504Z,129.27
2022-11-23T18:37:46.042Z,128.57
2022-11-23T18:40:13.944Z,122.60
2022-11-23T18:42:43.015Z,145.97
2022-11-23T18:45:13.338Z,141.57
2022-11-23T18:47:42.047Z,118.13
2022-11-23T18:50:10.449Z,122.20
2022-11-23T18:52:39.275Z,129.80
2022-11-23T18:55:08.704Z,132.37
2022-11-23T18:57:38.110Z,132.00
2022-11-23T19:00:08.514Z,124.27
2022-11-23T19:02:36.248Z,120.60
2022-11-23T19:05:05.016Z,124.43
2022-11-23T19:07:33.048Z,143.87
2022-11-23T19:10:03.181Z,158.60
2022-11-23T19:12:32.614Z,155.70
2022-11-23T19:15:01.210Z,152.23
2022-11-23T19:17:28.990Z,150.83
2022-11-23T19:19:57.205Z,166.50
2022-11-23T19:22:25.055Z,173.73
2022-11-23T19:24:53.423Z,170.40
2022-11-23T19:27:21.271Z,176.30
2022-11-23T19:29:49.601Z,161.07
2022-11-23T19:32:17.511Z,158.07
2022-11-23T19:34:45.697Z,171.40
2022-11-23T19:37:13.358Z,168.83
2022-11-23T19:39:41.414Z,157.60
2022-11-23T19:42:09.297Z,170.47
2022-11-23T19:44:37.211Z,168.17
2022-11-23T19:47:10.112Z,169.17
2022-11-23T19:49:41.577Z,167.80
2022-11-23T19:52:09.359Z,165.37
2022-11-23T19:54:37.254Z,170.87
2022-11-23T19:57:04.691Z,145.57
2022-11-23T19:59:32.951Z,163.83
2022-11-23T20:02:00.818Z,155.47
2022-11-23T20:04:29.740Z,145.67
2022-11-23T20:06:57.878Z,141.00
2022-11-23T20:09:27.879Z,141.20
2022-11-23T20:11:55.467Z,122.47
2022-11-23T20:14:23.637Z,131.63
2022-11-23T20:16:51.762Z,125.03
2022-11-23T20:19:19.844Z,127.37
2022-11-23T20:21:47.775Z,111.60
2022-11-23T20:24:15.970Z,128.77
2022-11-23T20:26:43.898Z,125.40
2022-11-23T20:29:13.927Z,128.17
2022-11-23T20:31:42.002Z,130.27
2022-11-23T20:34:15.409Z,129.00
2022-11-23T20:36:46.080Z,135.57
2022-11-23T20:39:16.397Z,112.97
2022-11-23T20:41:45.287Z,120.37
2022-11-23T20:44:15.207Z,109.13
2022-11-23T20:49:32.758Z,108.60
2022-11-23T20:52:00.935Z,101.37
2022-11-23T20:54:29.337Z,95.17
2022-11-23T20:57:00.316Z,103.87
2022-11-23T20:59:28.799Z,143.37
2022-11-23T21:01:56.788Z,148.47
2022-11-23T21:04:24.893Z,123.97
2022-11-23T21:06:52.837Z,108.23
2022-11-23T21:09:21.275Z,120.70
2022-11-23T21:12:07.373Z,109.80
2022-11-23T21:14:35.500Z,104.17
2022-11-23T21:17:04.009Z,117.17
2022-11-23T21:19:38.108Z,99.50
2022-11-23T21:22:11.598Z,132.33
2022-11-23T21:24:41.100Z,116.80
2022-11-23T21:27:12.725Z,101.53
2022-11-23T21:29:41.109Z,109.73
2022-11-23T21:32:09.133Z,125.33
2022-11-23T21:34:38.701Z,140.50
2022-11-23T21:37:06.309Z,156.40
2022-11-23T21:39:34.523Z,161.60
2022-11-23T21:42:02.386Z,121.70
2022-11-23T21:44:30.470Z,106.67
2022-11-23T21:46:58.621Z,108.10
2022-11-23T21:49:28.620Z,112.17
2022-11-23T21:51:56.463Z,119.43
2022-11-23T21:54:24.456Z,123.27
2022-11-23T21:56:52.630Z,108.70
2022-11-23T21:59:20.783Z,102.60
2022-11-23T22:01:48.493Z,106.87
2022-11-23T22:04:17.395Z,116.93
2022-11-23T22:06:45.719Z,108.20
2022-11-23T22:09:14.240Z,107.03
2022-11-23T22:11:44.038Z,113.90
2022-11-23T22:14:15.324Z,101.03
2022-11-23T22:16:44.940Z,115.93
2022-11-23T22:19:15.665Z,114.63
2022-11-23T22:21:45.285Z,120.67
2022-11-23T22:24:18.618Z,121.83
2022-11-23T22:26:48.153Z,117.80
2022-11-23T22:29:16.564Z,107.80
2022-11-23T22:31:44.706Z,111.27
2022-11-23T22:34:14.256Z,113.23
2022-11-23T22:36:42.343Z,122.33
2022-11-23T22:39:10.945Z,114.97
2022-11-23T22:41:38.903Z,108.10
2022-11-23T22:44:10.385Z,111.50
2022-11-23T22:46:39.006Z,111.17
2022-11-23T22:49:07.498Z,114.57
2022-11-23T22:51:35.050Z,116.70
2022-11-23T22:54:03.855Z,113.33
2022-11-23T22:56:31.821Z,114.97
2022-11-23T22:59:00.448Z,118.90
2022-11-23T23:01:30.656Z,115.83
2022-11-23T23:04:01.700Z,108.87
2022-11-23T23:06:33.842Z,116.03
2022-11-23T23:09:03.299Z,118.53
2022-11-23T23:11:32.996Z,117.67
2022-11-23T23:14:01.335Z,112.50
2022-11-23T23:16:30.326Z,118.70
2022-11-23T23:18:59.680Z,150.37
2022-11-23T23:21:28.766Z,124.07
2022-11-23T23:24:01.189Z,130.10
2022-11-23T23:26:29.751Z,127.20
2022-11-23T23:28:59.367Z,123.33
2022-11-23T23:31:27.976Z,213.10
2022-11-23T23:33:55.912Z,131.63
2022-11-23T23:36:24.808Z,127.93
2022-11-23T23:38:52.959Z,111.43
2022-11-23T23:41:20.785Z,121.67
2022-11-23T23:43:48.582Z,128.00
2022-11-23T23:46:16.695Z,120.77
2022-11-23T23:48:44.977Z,113.30
2022-11-23T23:51:15.695Z,124.23
2022-11-23T23:53:44.729Z,116.63
2022-11-23T23:56:14.904Z,109.60
2022-11-23T23:58:43.068Z,109.47
